createdAt,value
2023-03-11T00:00:43.775Z,96056.70
2023-03-11T00:03:39.586Z,96056.55
2023-03-11T00:06:33.099Z,96054.81
2023-03-11T00:09:26.595Z,96047.04
2023-03-11T00:12:20.203Z,96039.64
2023-03-11T00:15:15.917Z,96041.92
2023-03-11T00:18:10.296Z,96048.07
2023-03-11T00:20:50.606Z,96051.45
2023-03-11T00:23:44.338Z,96053.42
2023-03-11T00:26:37.925Z,96052.00
2023-03-11T00:29:31.528Z,96053.33
2023-03-11T00:32:25.091Z,96049.80
2023-03-11T00:35:22.347Z,96045.10
2023-03-11T00:38:19.071Z,96037.48
2023-03-11T00:41:12.740Z,96034.02
2023-03-11T00:44:06.616Z,96028.61
2023-03-11T00:47:00.355Z,96025.23
2023-03-11T00:49:53.872Z,96028.70
2023-03-11T00:52:48.891Z,96027.83
2023-03-11T00:55:42.761Z,96025.08
2023-03-11T00:58:36.738Z,96026.02
2023-03-11T01:01:30.363Z,96030.02
2023-03-11T01:04:24.179Z,96033.56
2023-03-11T01:07:17.823Z,96032.08
2023-03-11T01:10:13.846Z,96031.02
2023-03-11T01:13:07.657Z,96028.91
2023-03-11T01:16:02.075Z,96023.87
2023-03-11T01:18:56.152Z,96024.52
2023-03-11T01:21:49.750Z,96018.14
2023-03-11T01:24:31.950Z,96014.69
2023-03-11T01:27:25.615Z,96019.96
2023-03-11T01:30:22.128Z,96020.37
2023-03-11T01:33:20.630Z,96023.65
2023-03-11T01:36:14.744Z,96025.23
2023-03-11T01:39:08.314Z,96023.42
2023-03-11T01:42:01.840Z,96028.06
2023-03-11T01:44:56.509Z,96030.90
2023-03-11T01:47:50.154Z,96032.38
2023-03-11T01:50:48.309Z,96034.73
2023-03-11T01:53:42.212Z,96034.52
2023-03-11T01:56:36.482Z,96034.27
2023-03-11T01:59:38.051Z,96026.73
2023-03-11T02:02:37.601Z,96025.70
2023-03-11T02:05:31.541Z,96019.59
2023-03-11T02:08:25.115Z,96019.50
2023-03-11T02:11:24.887Z,96020.98
2023-03-11T02:14:18.893Z,96023.04
2023-03-11T02:17:12.969Z,96018.73
2023-03-11T02:20:22.264Z,96017.55
2023-03-11T02:23:18.713Z,96017.08
2023-03-11T02:26:19.491Z,96012.21
2023-03-11T02:29:14.180Z,96015.66
2023-03-11T02:32:11.756Z,96016.06
2023-03-11T02:35:06.089Z,96019.13
2023-03-11T02:37:59.734Z,96020.95
2023-03-11T02:40:57.780Z,96020.87
2023-03-11T02:43:51.576Z,96018.98
2023-03-11T02:46:46.064Z,96024.49
2023-03-11T02:49:40.135Z,96025.76
2023-03-11T02:52:35.503Z,96035.88
2023-03-11T02:55:29.133Z,96036.90
2023-03-11T02:58:22.647Z,96034.23
2023-03-11T03:01:16.897Z,96036.99
2023-03-11T03:04:10.601Z,96037.92
2023-03-11T03:07:04.287Z,96036.44
2023-03-11T03:09:57.870Z,96042.64
2023-03-11T03:12:51.718Z,96046.41
2023-03-11T03:15:45.348Z,96049.86
2023-03-11T03:18:38.918Z,96048.21
2023-03-11T03:21:32.448Z,96048.77
2023-03-11T03:24:26.036Z,96052.08
2023-03-11T03:27:19.644Z,96053.73
2023-03-11T03:30:15.279Z,96053.10
2023-03-11T03:33:09.518Z,96059.30
2023-03-11T03:36:13.924Z,96061.73
2023-03-11T03:39:08.460Z,96068.98
2023-03-11T03:42:02.009Z,96065.13
2023-03-11T03:44:55.570Z,96065.76
2023-03-11T03:47:49.111Z,96064.50
2023-03-11T03:50:43.557Z,96064.67
2023-03-11T03:53:38.027Z,96066.79
2023-03-11T03:56:31.670Z,96066.40
2023-03-11T03:59:25.230Z,96064.98
2023-03-11T04:02:18.832Z,96064.03
2023-03-11T04:05:13.548Z,96066.63
2023-03-11T04:08:07.730Z,96068.21
2023-03-11T04:11:04.413Z,96068.68
2023-03-11T04:13:58.045Z,96067.03
2023-03-11T04:16:51.747Z,96067.42
2023-03-11T04:19:45.315Z,96071.44
2023-03-11T04:22:38.944Z,96072.14
2023-03-11T04:25:34.384Z,96082.90
2023-03-11T04:28:27.922Z,96071.75
2023-03-11T04:31:21.641Z,96067.12
2023-03-11T04:34:15.256Z,96063.66
2023-03-11T04:37:09.024Z,96062.16
2023-03-11T04:40:06.590Z,96064.05
2023-03-11T04:43:00.130Z,96074.89
2023-03-11T04:45:54.245Z,96084.63
2023-03-11T04:48:47.878Z,96087.38
2023-03-11T04:51:41.478Z,96083.06
2023-03-11T04:54:35.148Z,96085.89
2023-03-11T04:57:28.887Z,96086.44
2023-03-11T05:00:25.302Z,96088.73
2023-03-11T05:03:19.372Z,96089.73
2023-03-11T05:06:13.126Z,96092.10
2023-03-11T05:09:06.940Z,96090.52
2023-03-11T05:12:01.632Z,96087.92
2023-03-11T05:14:55.132Z,96087.14
2023-03-11T05:17:48.881Z,96097.13
2023-03-11T05:20:42.560Z,96099.64
2023-03-11T05:23:36.649Z,96099.17
2023-03-11T05:26:30.690Z,96097.84
2023-03-11T05:29:24.760Z,96112.14
2023-03-11T05:32:19.441Z,96112.77
2023-03-11T05:35:13.600Z,96116.07
2023-03-11T05:38:08.326Z,96118.10
2023-03-11T05:41:01.946Z,96119.14
2023-03-11T05:43:55.571Z,96127.98
2023-03-11T05:46:49.496Z,96128.71
2023-03-11T05:49:43.111Z,96133.35
2023-03-11T05:52:36.720Z,96144.50
2023-03-11T05:55:30.316Z,96146.45
2023-03-11T05:58:23.966Z,96156.67
2023-03-11T06:01:20.292Z,96166.17
2023-03-11T06:04:14.817Z,96176.23
2023-03-11T06:07:08.801Z,96179.28
2023-03-11T06:10:02.542Z,96185.17
2023-03-11T06:12:56.099Z,96193.34
2023-03-11T06:15:49.836Z,96196.41
2023-03-11T06:18:43.613Z,96202.92
2023-03-11T06:21:37.163Z,96211.96
2023-03-11T06:24:30.774Z,96215.81
2023-03-11T06:27:24.356Z,96228.91
2023-03-11T06:30:19.413Z,96235.90
2023-03-11T06:33:14.459Z,96239.04
2023-03-11T06:36:11.493Z,96239.44
2023-03-11T06:39:05.779Z,96243.76
2023-03-11T06:41:59.339Z,96250.59
2023-03-11T06:44:52.938Z,96252.78
2023-03-11T06:47:46.614Z,96262.75
2023-03-11T06:50:40.300Z,96267.63
2023-03-11T06:53:33.948Z,96267.71
2023-03-11T06:56:27.921Z,96274.38
2023-03-11T06:59:22.897Z,96272.73
2023-03-11T07:02:17.097Z,96283.65
2023-03-11T07:05:13.331Z,96286.94
2023-03-11T07:08:07.816Z,96294.40
2023-03-11T07:11:13.494Z,96297.45
2023-03-11T07:14:08.043Z,96299.04
2023-03-11T07:17:01.796Z,96301.38
2023-03-11T07:19:56.058Z,96306.09
2023-03-11T07:22:49.588Z,96309.86
2023-03-11T07:25:48.824Z,96309.08
2023-03-11T07:28:26.395Z,96312.70
2023-03-11T07:31:23.731Z,96320.31
2023-03-11T07:34:17.697Z,96323.75
2023-03-11T07:37:11.436Z,96327.36
2023-03-11T07:40:05.255Z,96328.14
2023-03-11T07:42:59.164Z,96333.64
2023-03-11T07:45:52.862Z,96333.95
2023-03-11T07:48:47.003Z,96335.28
2023-03-11T07:51:43.705Z,96336.92
2023-03-11T07:54:22.572Z,96342.89
2023-03-11T07:57:17.173Z,96344.77
2023-03-11T08:00:13.618Z,96350.35
2023-03-11T08:03:07.306Z,96356.60
2023-03-11T08:06:01.128Z,96357.95
2023-03-11T08:08:55.107Z,96359.14
2023-03-11T08:11:49.810Z,96363.91
2023-03-11T08:14:43.889Z,96369.25
2023-03-11T08:17:37.636Z,96373.98
2023-03-11T08:20:31.271Z,96375.77
2023-03-11T08:23:25.200Z,96377.80
2023-03-11T08:26:03.625Z,96382.61
2023-03-11T08:28:59.664Z,96387.23
2023-03-11T08:31:53.305Z,96393.11
2023-03-11T08:34:47.133Z,96395.09
2023-03-11T08:37:40.930Z,96394.55
2023-03-11T08:40:34.458Z,96397.77
2023-03-11T08:43:28.321Z,96403.89
2023-03-11T08:46:28.300Z,96406.91
2023-03-11T08:49:22.418Z,96410.13
2023-03-11T08:52:16.000Z,96413.75
2023-03-11T08:55:13.549Z,96416.66
2023-03-11T08:57:54.362Z,96413.19
2023-03-11T09:00:48.293Z,96417.35
2023-03-11T09:03:42.672Z,96423.55
2023-03-11T09:06:36.590Z,96425.59
2023-03-11T09:09:30.584Z,96434.56
2023-03-11T09:12:24.720Z,96441.95
2023-03-11T09:15:18.811Z,96445.63
2023-03-11T09:18:15.410Z,96452.50
2023-03-11T09:21:09.769Z,96453.39
2023-03-11T09:24:04.800Z,96455.96
2023-03-11T09:26:58.493Z,96460.16
2023-03-11T09:29:52.049Z,96463.80
2023-03-11T09:32:45.702Z,96464.35
2023-03-11T09:35:40.901Z,96469.94
2023-03-11T09:38:34.744Z,96471.05
2023-03-11T09:41:55.374Z,96475.44
2023-03-11T09:44:55.756Z,96478.97
2023-03-11T09:48:08.444Z,96481.52
2023-03-11T09:51:09.571Z,96489.94
2023-03-11T09:54:11.237Z,96490.98
2023-03-11T09:57:07.681Z,96494.20
2023-03-11T10:00:04.990Z,96504.23
2023-03-11T10:02:59.364Z,96510.33
2023-03-11T10:05:55.861Z,96513.60
2023-03-11T10:09:00.318Z,96516.97
2023-03-11T10:12:07.412Z,96523.12
2023-03-11T10:15:19.550Z,96529.81
2023-03-11T10:18:55.385Z,96537.78
2023-03-11T10:22:03.864Z,96542.81
2023-03-11T10:25:10.249Z,96547.87
2023-03-11T10:28:11.965Z,96551.02
2023-03-11T10:31:21.653Z,96558.13
2023-03-11T10:34:24.156Z,96567.90
2023-03-11T10:37:36.038Z,96574.89
2023-03-11T10:40:44.492Z,96588.46
2023-03-11T10:43:44.668Z,96588.77
2023-03-11T10:46:38.538Z,96597.48
2023-03-11T10:49:32.546Z,96605.91
2023-03-11T10:52:26.199Z,96613.80
2023-03-11T10:55:21.459Z,96613.98
2023-03-11T10:58:19.887Z,96623.84
2023-03-11T11:01:21.638Z,96629.83
2023-03-11T11:04:39.125Z,96632.81
2023-03-11T11:07:36.995Z,96643.61
2023-03-11T11:10:31.003Z,96648.80
2023-03-11T11:13:27.137Z,96658.81
2023-03-11T11:16:23.729Z,96670.30
2023-03-11T11:19:18.212Z,96674.95
2023-03-11T11:22:20.087Z,96684.33
2023-03-11T11:25:39.391Z,96695.66
2023-03-11T11:28:33.737Z,96699.30
2023-03-11T11:31:29.057Z,96709.39
2023-03-11T11:34:36.929Z,96717.59
2023-03-11T11:37:35.277Z,96729.64
2023-03-11T11:40:34.555Z,96740.05
2023-03-11T11:43:43.755Z,96756.77
2023-03-11T11:46:42.083Z,96763.06
2023-03-11T11:49:37.973Z,96770.24
2023-03-11T11:52:38.556Z,96779.08
2023-03-11T11:55:34.239Z,96788.67
2023-03-11T11:58:28.565Z,96788.77
2023-03-11T12:01:41.812Z,96800.81
2023-03-11T12:04:56.187Z,96810.20
2023-03-11T12:08:07.212Z,96822.76
2023-03-11T12:11:05.829Z,96829.38
2023-03-11T12:14:10.200Z,96839.55
2023-03-11T12:17:09.720Z,96845.64
2023-03-11T12:20:12.370Z,96853.07
2023-03-11T12:23:21.346Z,96864.20
2023-03-11T12:26:25.212Z,96871.98
2023-03-11T12:29:29.800Z,96876.27
2023-03-11T12:32:32.384Z,96880.91
2023-03-11T12:35:30.215Z,96885.98
2023-03-11T12:38:32.405Z,96895.34
2023-03-11T12:41:39.954Z,96905.10
2023-03-11T12:44:34.543Z,96912.26
2023-03-11T12:47:31.971Z,96920.88
2023-03-11T12:50:44.665Z,96925.11
2023-03-11T12:53:50.487Z,96938.14
2023-03-11T12:56:50.198Z,96947.69
2023-03-11T13:00:23.156Z,96957.84
2023-03-11T13:03:43.022Z,96961.08
2023-03-11T13:07:36.542Z,96974.73
2023-03-11T13:10:42.350Z,96985.00
2023-03-11T13:13:43.674Z,96995.56
2023-03-11T13:16:47.632Z,97012.27
2023-03-11T13:19:56.397Z,97023.48
2023-03-11T13:23:30.938Z,97031.38
2023-03-11T13:26:49.616Z,97046.27
2023-03-11T13:30:01.337Z,97050.73
2023-03-11T13:33:23.111Z,97061.13
2023-03-11T13:36:37.618Z,97069.56
2023-03-11T13:39:44.355Z,97076.49
2023-03-11T13:42:43.872Z,97084.12
2023-03-11T13:45:39.344Z,97091.70
2023-03-11T13:48:37.906Z,97091.67
2023-03-11T13:51:38.406Z,97102.50
2023-03-11T13:54:49.070Z,97107.04
2023-03-11T13:57:50.738Z,97112.55
2023-03-11T14:00:53.149Z,97123.90
2023-03-11T14:03:49.006Z,97129.56
2023-03-11T14:06:42.899Z,97142.92
2023-03-11T14:09:39.603Z,97149.33
2023-03-11T14:12:34.979Z,97149.05
2023-03-11T14:15:29.788Z,97160.46
2023-03-11T14:18:41.539Z,97168.27
2023-03-11T14:21:36.410Z,97173.92
2023-03-11T14:24:32.315Z,97179.73
2023-03-11T14:27:25.882Z,97179.19
2023-03-11T14:30:27.811Z,97186.60
2023-03-11T14:33:23.943Z,97194.06
2023-03-11T14:36:19.008Z,97201.09
2023-03-11T14:39:31.807Z,97205.09
2023-03-11T14:42:30.601Z,97216.04
2023-03-11T14:45:27.128Z,97222.44
2023-03-11T14:48:28.026Z,97237.02
2023-03-11T14:51:29.224Z,97242.80
2023-03-11T14:54:27.267Z,97248.70
2023-03-11T14:57:28.894Z,97257.16
2023-03-11T15:00:27.082Z,97256.70
2023-03-11T15:03:27.034Z,97257.54
2023-03-11T15:06:24.992Z,97257.64
2023-03-11T15:09:22.503Z,97263.11
2023-03-11T15:12:38.406Z,97266.77
2023-03-11T15:15:32.727Z,97274.67
2023-03-11T15:18:33.365Z,97281.87
2023-03-11T15:21:28.220Z,97289.81
2023-03-11T15:24:27.721Z,97296.20
2023-03-11T15:27:32.260Z,97295.17
2023-03-11T15:30:28.929Z,97300.83
2023-03-11T15:33:34.406Z,97304.77
2023-03-11T15:36:39.381Z,97311.77
2023-03-11T15:39:47.266Z,97317.91
2023-03-11T15:42:41.386Z,97328.05
2023-03-11T15:45:35.174Z,97327.71
2023-03-11T15:48:31.788Z,97335.67
2023-03-11T15:51:25.388Z,97344.70
2023-03-11T15:54:19.147Z,97355.35
2023-03-11T15:57:24.881Z,97354.70
2023-03-11T16:00:24.769Z,97368.27
2023-03-11T16:03:18.575Z,97369.70
2023-03-11T16:06:12.450Z,97374.73
2023-03-11T16:09:06.713Z,97382.48
2023-03-11T16:11:40.658Z,97388.70
2023-03-11T16:14:34.235Z,97393.85
2023-03-11T16:17:39.466Z,97398.17
2023-03-11T16:20:45.816Z,97413.35
2023-03-11T16:23:51.207Z,97415.16
2023-03-11T16:26:45.425Z,97425.98
2023-03-11T16:29:23.306Z,97427.46
2023-03-11T16:32:17.020Z,97438.50
2023-03-11T16:35:12.318Z,97442.73
2023-03-11T16:38:06.072Z,97447.75
2023-03-11T16:41:04.132Z,97451.84
2023-03-11T16:43:57.689Z,97458.74
2023-03-11T16:46:51.328Z,97462.99
2023-03-11T16:49:45.129Z,97470.29
2023-03-11T16:52:38.878Z,97483.43
2023-03-11T16:55:32.692Z,97495.30
2023-03-11T16:58:26.623Z,97505.87
2023-03-11T17:01:21.736Z,97508.12
2023-03-11T17:04:15.761Z,97515.38
2023-03-11T17:07:10.207Z,97518.85
2023-03-11T17:10:05.032Z,97525.88
2023-03-11T17:12:58.823Z,97534.55
2023-03-11T17:16:03.812Z,97538.79
2023-03-11T17:18:57.485Z,97552.28
2023-03-11T17:21:51.216Z,97555.02
2023-03-11T17:24:45.021Z,97563.73
2023-03-11T17:27:38.575Z,97571.95
2023-03-11T17:30:37.309Z,97576.35
2023-03-11T17:33:31.265Z,97577.27
2023-03-11T17:36:24.842Z,97584.34
2023-03-11T17:39:18.569Z,97591.55
2023-03-11T17:42:12.228Z,97598.38
2023-03-11T17:45:06.375Z,97602.85
2023-03-11T17:48:00.166Z,97611.11
2023-03-11T17:50:53.650Z,97615.70
2023-03-11T17:53:48.966Z,97619.36
2023-03-11T17:56:42.519Z,97629.31
2023-03-11T17:59:36.501Z,97632.59
2023-03-11T18:02:30.118Z,97641.19
2023-03-11T18:05:24.299Z,97648.82
2023-03-11T18:08:18.118Z,97656.94
2023-03-11T18:11:16.423Z,97666.46
2023-03-11T18:14:12.693Z,97665.75
2023-03-11T18:17:06.415Z,97672.87
2023-03-11T18:20:01.144Z,97679.79
2023-03-11T18:22:55.996Z,97686.32
2023-03-11T18:25:53.765Z,97689.45
2023-03-11T18:28:47.536Z,97697.33
2023-03-11T18:31:41.808Z,97702.52
2023-03-11T18:34:35.756Z,97707.16
2023-03-11T18:37:29.559Z,97708.72
2023-03-11T18:40:23.952Z,97715.46
2023-03-11T18:43:18.184Z,97718.84
2023-03-11T18:46:15.840Z,97725.42
2023-03-11T18:49:08.361Z,97734.80
2023-03-11T18:52:01.981Z,97735.42
2023-03-11T18:54:55.765Z,97738.16
2023-03-11T18:57:49.457Z,97745.59
2023-03-11T19:00:43.147Z,97743.73
2023-03-11T19:03:37.270Z,97750.79
2023-03-11T19:06:31.715Z,97754.00
2023-03-11T19:09:25.465Z,97761.06
2023-03-11T19:12:19.983Z,97766.89
2023-03-11T19:15:15.632Z,97768.30
2023-03-11T19:18:09.940Z,97768.54
2023-03-11T19:21:05.889Z,97776.14
2023-03-11T19:24:01.833Z,97775.83
2023-03-11T19:26:55.453Z,97776.55
2023-03-11T19:29:49.474Z,97783.51
2023-03-11T19:32:43.209Z,97793.77
2023-03-11T19:35:37.778Z,97798.11
2023-03-11T19:38:32.314Z,97802.64
2023-03-11T19:41:26.065Z,97806.90
2023-03-11T19:44:19.504Z,97810.02
2023-03-11T19:47:13.061Z,97812.98
2023-03-11T19:49:51.447Z,97809.55
2023-03-11T19:52:45.036Z,97813.28
2023-03-11T19:55:38.705Z,97815.30
2023-03-11T19:58:32.971Z,97817.14
2023-03-11T20:01:28.284Z,97818.99
2023-03-11T20:04:07.536Z,97825.30
2023-03-11T20:07:01.219Z,97828.71
2023-03-11T20:09:55.127Z,97833.73
2023-03-11T20:13:01.446Z,97839.28
2023-03-11T20:15:56.051Z,97837.74
2023-03-11T20:18:51.916Z,97835.67
2023-03-11T20:21:46.175Z,97835.46
2023-03-11T20:24:39.862Z,97835.16
2023-03-11T20:27:22.543Z,97837.05
2023-03-11T20:30:07.590Z,97837.20
2023-03-11T20:32:55.370Z,97842.35
2023-03-11T20:35:49.071Z,97844.73
2023-03-11T20:38:43.445Z,97851.14
2023-03-11T20:41:41.783Z,97854.52
2023-03-11T20:44:35.978Z,97858.90
2023-03-11T20:47:30.887Z,97859.56
2023-03-11T20:50:27.778Z,97860.66
2023-03-11T20:53:23.980Z,97865.44
2023-03-11T20:56:22.105Z,97862.65
2023-03-11T20:59:15.133Z,97869.45
2023-03-11T21:02:10.202Z,97870.97
2023-03-11T21:05:04.380Z,97873.98
2023-03-11T21:07:57.970Z,97878.84
2023-03-11T21:10:51.689Z,97882.00
2023-03-11T21:13:45.768Z,97884.38
2023-03-11T21:16:40.991Z,97888.15
2023-03-11T21:19:35.611Z,97890.80
2023-03-11T21:22:31.679Z,97889.36
2023-03-11T21:25:28.905Z,97890.01
2023-03-11T21:28:25.917Z,97892.86
2023-03-11T21:31:28.543Z,97891.08
2023-03-11T21:34:24.953Z,97895.32
2023-03-11T21:37:20.534Z,97895.73
2023-03-11T21:40:18.099Z,97897.96
2023-03-11T21:43:13.383Z,97903.48
2023-03-11T21:46:10.868Z,97902.20
2023-03-11T21:49:05.514Z,97896.42
2023-03-11T21:52:02.098Z,97896.14
2023-03-11T21:54:59.681Z,97904.08
2023-03-11T21:57:53.946Z,97906.59
2023-03-11T22:00:48.962Z,97911.78
2023-03-11T22:03:43.790Z,97919.45
2023-03-11T22:06:37.795Z,97925.54
2023-03-11T22:09:31.575Z,97925.11
2023-03-11T22:12:25.843Z,97930.46
2023-03-11T22:15:20.135Z,97932.00
2023-03-11T22:18:14.051Z,97935.20
2023-03-11T22:21:10.828Z,97932.77
2023-03-11T22:24:05.057Z,97940.45
2023-03-11T22:26:58.857Z,97939.52
2023-03-11T22:29:52.599Z,97948.98
2023-03-11T22:32:46.436Z,97952.86
2023-03-11T22:35:40.076Z,97949.13
2023-03-11T22:38:34.221Z,97953.57
2023-03-11T22:41:13.445Z,97958.37
2023-03-11T22:44:07.122Z,97960.86
2023-03-11T22:46:40.565Z,97965.98
2023-03-11T22:49:34.970Z,97964.95
2023-03-11T22:52:28.874Z,97962.84
2023-03-11T22:55:23.892Z,97962.46
2023-03-11T22:58:17.620Z,97960.52
2023-03-11T23:01:11.906Z,97957.98
2023-03-11T23:04:05.575Z,97963.05
2023-03-11T23:06:59.232Z,97961.10
2023-03-11T23:09:52.900Z,97966.52
2023-03-11T23:12:46.566Z,97965.38
2023-03-11T23:15:42.434Z,97968.88
2023-03-11T23:18:36.784Z,97965.08
2023-03-11T23:21:33.243Z,97967.08
2023-03-11T23:24:27.510Z,97964.24
2023-03-11T23:27:22.265Z,97964.94
2023-03-11T23:30:18.963Z,97966.91
2023-03-11T23:33:12.645Z,97971.30
2023-03-11T23:36:09.942Z,97969.48
2023-03-11T23:39:03.626Z,97972.48
2023-03-11T23:41:57.408Z,97977.02
2023-03-11T23:44:51.136Z,97984.06
2023-03-11T23:47:44.817Z,97983.85
2023-03-11T23:50:38.658Z,97986.90
2023-03-11T23:53:32.852Z,97991.65
2023-03-11T23:56:26.379Z,97992.05
2023-03-11T23:59:20.061Z,97990.23
